sensor_id;sensor_type;location;lat;lon;timestamp;temperature;humidity
39657;DHT22;25337;51.478;7.510;2022-09-25T00:02:01;12.80;99.90
39657;DHT22;25337;51.478;7.510;2022-09-25T00:04:26;12.80;99.90
39657;DHT22;25337;51.478;7.510;2022-09-25T00:06:52;12.80;99.90
39657;DHT22;25337;51.478;7.510;2022-09-25T00:09:17;12.80;99.90
39657;DHT22;25337;51.478;7.510;2022-09-25T00:11:45;12.80;99.90
39657;DHT22;25337;51.478;7.510;2022-09-25T00:14:11;12.80;99.90
39657;DHT22;25337;51.478;7.510;2022-09-25T00:16:36;12.80;99.90
39657;DHT22;25337;51.478;7.510;2022-09-25T00:19:02;12.80;99.90
39657;DHT22;25337;51.478;7.510;2022-09-25T00:21:46;12.80;99.90
39657;DHT22;25337;51.478;7.510;2022-09-25T00:24:17;12.80;99.90
39657;DHT22;25337;51.478;7.510;2022-09-25T00:26:42;12.80;99.90
39657;DHT22;25337;51.478;7.510;2022-09-25T00:29:08;12.80;99.90
39657;DHT22;25337;51.478;7.510;2022-09-25T00:31:36;12.80;99.90
39657;DHT22;25337;51.478;7.510;2022-09-25T00:34:02;12.80;99.90
39657;DHT22;25337;51.478;7.510;2022-09-25T00:36:29;12.70;99.90
39657;DHT22;25337;51.478;7.510;2022-09-25T00:38:55;12.70;99.90
39657;DHT22;25337;51.478;7.510;2022-09-25T00:41:22;12.70;99.90
39657;DHT22;25337;51.478;7.510;2022-09-25T00:43:49;12.70;99.90
39657;DHT22;25337;51.478;7.510;2022-09-25T00:46:16;12.70;99.90
39657;DHT22;25337;51.478;7.510;2022-09-25T00:49:24;12.70;99.90
39657;DHT22;25337;51.478;7.510;2022-09-25T00:54:16;12.70;99.90
39657;DHT22;25337;51.478;7.510;2022-09-25T00:56:43;12.60;99.90
39657;DHT22;25337;51.478;7.510;2022-09-25T00:59:10;12.70;99.90
39657;DHT22;25337;51.478;7.510;2022-09-25T01:01:38;12.70;99.90
39657;DHT22;25337;51.478;7.510;2022-09-25T01:04:03;12.60;99.90
39657;DHT22;25337;51.478;7.510;2022-09-25T01:06:29;12.60;99.90
39657;DHT22;25337;51.478;7.510;2022-09-25T01:08:56;12.70;99.90
39657;DHT22;25337;51.478;7.510;2022-09-25T01:11:22;12.60;99.90
39657;DHT22;25337;51.478;7.510;2022-09-25T01:13:47;12.70;99.90
39657;DHT22;25337;51.478;7.510;2022-09-25T01:16:19;12.70;99.90
39657;DHT22;25337;51.478;7.510;2022-09-25T01:29:18;12.50;99.90
39657;DHT22;25337;51.478;7.510;2022-09-25T01:34:44;12.70;99.90
39657;DHT22;25337;51.478;7.510;2022-09-25T01:37:35;12.60;99.90
39657;DHT22;25337;51.478;7.510;2022-09-25T01:42:33;12.60;99.90
39657;DHT22;25337;51.478;7.510;2022-09-25T01:45:04;12.60;99.90
39657;DHT22;25337;51.478;7.510;2022-09-25T01:47:33;12.60;99.90
39657;DHT22;25337;51.478;7.510;2022-09-25T01:50:06;12.60;99.90
39657;DHT22;25337;51.478;7.510;2022-09-25T01:52:37;12.60;99.90
39657;DHT22;25337;51.478;7.510;2022-09-25T01:57:45;12.40;99.90
39657;DHT22;25337;51.478;7.510;2022-09-25T02:00:14;12.30;99.90
39657;DHT22;25337;51.478;7.510;2022-09-25T02:02:42;12.20;99.90
39657;DHT22;25337;51.478;7.510;2022-09-25T02:05:16;12.10;99.90
39657;DHT22;25337;51.478;7.510;2022-09-25T08:16:47;12.10;99.90
39657;DHT22;25337;51.478;7.510;2022-09-25T08:19:13;13.50;99.90
39657;DHT22;25337;51.478;7.510;2022-09-25T08:21:42;13.40;99.90
39657;DHT22;25337;51.478;7.510;2022-09-25T08:24:08;13.50;99.90
39657;DHT22;25337;51.478;7.510;2022-09-25T08:26:34;13.60;99.90
39657;DHT22;25337;51.478;7.510;2022-09-25T08:28:59;14.10;99.90
39657;DHT22;25337;51.478;7.510;2022-09-25T08:31:25;14.70;99.90
39657;DHT22;25337;51.478;7.510;2022-09-25T08:33:50;15.10;99.90
39657;DHT22;25337;51.478;7.510;2022-09-25T08:36:16;15.10;99.90
39657;DHT22;25337;51.478;7.510;2022-09-25T08:38:42;15.30;99.90
39657;DHT22;25337;51.478;7.510;2022-09-25T08:42:13;15.30;99.90
39657;DHT22;25337;51.478;7.510;2022-09-25T08:44:12;15.80;99.90
39657;DHT22;25337;51.478;7.510;2022-09-25T08:46:43;15.20;99.90
39657;DHT22;25337;51.478;7.510;2022-09-25T08:49:30;15.20;99.90
39657;DHT22;25337;51.478;7.510;2022-09-25T08:51:59;15.40;99.90
39657;DHT22;25337;51.478;7.510;2022-09-25T08:54:26;15.10;99.90
39657;DHT22;25337;51.478;7.510;2022-09-25T08:56:54;15.80;99.90
39657;DHT22;25337;51.478;7.510;2022-09-25T08:59:25;16.50;99.90
39657;DHT22;25337;51.478;7.510;2022-09-25T09:01:57;17.00;99.90
39657;DHT22;25337;51.478;7.510;2022-09-25T09:04:37;16.80;99.90
39657;DHT22;25337;51.478;7.510;2022-09-25T09:07:07;17.10;99.90
39657;DHT22;25337;51.478;7.510;2022-09-25T09:09:35;17.20;99.90
39657;DHT22;25337;51.478;7.510;2022-09-25T09:14:34;17.00;99.90
39657;DHT22;25337;51.478;7.510;2022-09-25T09:17:04;16.20;99.90
39657;DHT22;25337;51.478;7.510;2022-09-25T09:19:31;15.60;99.90
39657;DHT22;25337;51.478;7.510;2022-09-25T09:22:10;15.10;99.90
39657;DHT22;25337;51.478;7.510;2022-09-25T09:48:30;17.30;99.90
39657;DHT22;25337;51.478;7.510;2022-09-25T09:50:59;15.70;99.90
39657;DHT22;25337;51.478;7.510;2022-09-25T09:53:34;16.00;99.90
39657;DHT22;25337;51.478;7.510;2022-09-25T09:56:08;17.40;99.90
39657;DHT22;25337;51.478;7.510;2022-09-25T10:01:09;19.80;99.90
39657;DHT22;25337;51.478;7.510;2022-09-25T10:03:37;19.70;99.90
39657;DHT22;25337;51.478;7.510;2022-09-25T10:06:04;19.40;99.90
39657;DHT22;25337;51.478;7.510;2022-09-25T10:08:33;19.10;99.90
39657;DHT22;25337;51.478;7.510;2022-09-25T10:10:59;18.40;99.90
39657;DHT22;25337;51.478;7.510;2022-09-25T10:15:58;19.60;99.90
39657;DHT22;25337;51.478;7.510;2022-09-25T10:18:27;19.90;99.90
39657;DHT22;25337;51.478;7.510;2022-09-25T10:21:04;18.80;99.90
39657;DHT22;25337;51.478;7.510;2022-09-25T10:25:59;17.60;99.90
39657;DHT22;25337;51.478;7.510;2022-09-25T10:28:26;17.40;99.90
39657;DHT22;25337;51.478;7.510;2022-09-25T10:30:52;18.20;99.90
39657;DHT22;25337;51.478;7.510;2022-09-25T10:33:19;18.50;98.70
39657;DHT22;25337;51.478;7.510;2022-09-25T10:35:46;19.30;97.20
39657;DHT22;25337;51.478;7.510;2022-09-25T10:41:02;20.90;94.90
39657;DHT22;25337;51.478;7.510;2022-09-25T10:43:28;20.30;95.20
39657;DHT22;25337;51.478;7.510;2022-09-25T10:48:32;20.50;96.30
39657;DHT22;25337;51.478;7.510;2022-09-25T10:51:17;20.70;95.50
39657;DHT22;25337;51.478;7.510;2022-09-25T10:53:50;20.70;94.10
39657;DHT22;25337;51.478;7.510;2022-09-25T10:56:29;22.00;91.50
39657;DHT22;25337;51.478;7.510;2022-09-25T10:59:00;19.20;95.10
39657;DHT22;25337;51.478;7.510;2022-09-25T11:01:31;18.30;96.30
39657;DHT22;25337;51.478;7.510;2022-09-25T11:03:57;18.60;96.90
39657;DHT22;25337;51.478;7.510;2022-09-25T11:06:23;19.40;95.70
39657;DHT22;25337;51.478;7.510;2022-09-25T11:09:03;19.30;95.00
39657;DHT22;25337;51.478;7.510;2022-09-25T11:11:32;21.00;94.40
39657;DHT22;25337;51.478;7.510;2022-09-25T11:13:58;21.30;93.20
39657;DHT22;25337;51.478;7.510;2022-09-25T11:19:11;20.40;94.30
39657;DHT22;25337;51.478;7.510;2022-09-25T11:21:45;19.20;96.30
39657;DHT22;25337;51.478;7.510;2022-09-25T11:26:44;19.60;95.00
39657;DHT22;25337;51.478;7.510;2022-09-25T11:29:18;19.40;95.10
39657;DHT22;25337;51.478;7.510;2022-09-25T11:32:09;20.40;95.10
39657;DHT22;25337;51.478;7.510;2022-09-25T11:34:38;21.90;91.10
39657;DHT22;25337;51.478;7.510;2022-09-25T11:39:46;21.30;91.50
39657;DHT22;25337;51.478;7.510;2022-09-25T11:45:31;18.80;97.40
39657;DHT22;25337;51.478;7.510;2022-09-25T11:51:05;19.60;93.00
39657;DHT22;25337;51.478;7.510;2022-09-25T11:53:38;20.00;91.90
39657;DHT22;25337;51.478;7.510;2022-09-25T11:56:13;20.30;90.60
39657;DHT22;25337;51.478;7.510;2022-09-25T12:03:56;21.70;88.20
39657;DHT22;25337;51.478;7.510;2022-09-25T12:06:26;21.40;88.20
39657;DHT22;25337;51.478;7.510;2022-09-25T12:27:15;22.50;85.30
39657;DHT22;25337;51.478;7.510;2022-09-25T12:30:46;22.90;83.50
39657;DHT22;25337;51.478;7.510;2022-09-25T12:32:57;21.50;84.20
39657;DHT22;25337;51.478;7.510;2022-09-25T12:41:54;19.90;85.50
39657;DHT22;25337;51.478;7.510;2022-09-25T12:44:03;18.80;85.50
39657;DHT22;25337;51.478;7.510;2022-09-25T12:49:12;20.20;83.20
39657;DHT22;25337;51.478;7.510;2022-09-25T12:51:44;20.50;83.30
39657;DHT22;25337;51.478;7.510;2022-09-25T12:56:46;21.80;81.10
39657;DHT22;25337;51.478;7.510;2022-09-25T12:59:17;22.00;81.60
39657;DHT22;25337;51.478;7.510;2022-09-25T13:06:50;21.90;81.10
39657;DHT22;25337;51.478;7.510;2022-09-25T13:09:29;22.00;81.80
39657;DHT22;25337;51.478;7.510;2022-09-25T13:12:06;22.70;82.70
39657;DHT22;25337;51.478;7.510;2022-09-25T13:14:50;22.20;82.40
39657;DHT22;25337;51.478;7.510;2022-09-25T13:17:16;22.60;79.90
39657;DHT22;25337;51.478;7.510;2022-09-25T13:19:42;22.30;77.90
39657;DHT22;25337;51.478;7.510;2022-09-25T13:22:08;22.00;80.70
39657;DHT22;25337;51.478;7.510;2022-09-25T13:24:37;22.10;81.20
39657;DHT22;25337;51.478;7.510;2022-09-25T13:27:03;21.70;78.00
39657;DHT22;25337;51.478;7.510;2022-09-25T13:29:32;21.70;78.80
39657;DHT22;25337;51.478;7.510;2022-09-25T13:34:38;24.60;72.60
39657;DHT22;25337;51.478;7.510;2022-09-25T13:37:04;23.30;74.70
39657;DHT22;25337;51.478;7.510;2022-09-25T13:39:32;23.90;73.30
39657;DHT22;25337;51.478;7.510;2022-09-25T13:44:47;23.00;74.70
39657;DHT22;25337;51.478;7.510;2022-09-25T13:50:35;22.50;77.10
39657;DHT22;25337;51.478;7.510;2022-09-25T14:01:09;22.30;76.40
39657;DHT22;25337;51.478;7.510;2022-09-25T14:03:27;20.90;74.70
39657;DHT22;25337;51.478;7.510;2022-09-25T14:05:54;21.00;76.80
39657;DHT22;25337;51.478;7.510;2022-09-25T14:08:20;20.00;79.20
39657;DHT22;25337;51.478;7.510;2022-09-25T14:10:46;19.00;82.70
39657;DHT22;25337;51.478;7.510;2022-09-25T14:13:13;18.90;83.30
39657;DHT22;25337;51.478;7.510;2022-09-25T14:15:40;18.70;83.10
39657;DHT22;25337;51.478;7.510;2022-09-25T14:18:08;18.30;83.80
39657;DHT22;25337;51.478;7.510;2022-09-25T14:20:39;18.20;83.60
39657;DHT22;25337;51.478;7.510;2022-09-25T14:23:13;18.00;83.20
39657;DHT22;25337;51.478;7.510;2022-09-25T14:25:39;17.60;85.50
39657;DHT22;25337;51.478;7.510;2022-09-25T14:28:16;17.70;84.70
39657;DHT22;25337;51.478;7.510;2022-09-25T14:33:40;17.90;86.80
39657;DHT22;25337;51.478;7.510;2022-09-25T14:39:02;17.40;90.30
39657;DHT22;25337;51.478;7.510;2022-09-25T14:46:52;16.90;90.60
39657;DHT22;25337;51.478;7.510;2022-09-25T14:49:26;17.00;90.20
39657;DHT22;25337;51.478;7.510;2022-09-25T14:51:53;17.00;90.40
39657;DHT22;25337;51.478;7.510;2022-09-25T14:54:20;17.40;90.90
39657;DHT22;25337;51.478;7.510;2022-09-25T14:56:48;17.70;91.00
39657;DHT22;25337;51.478;7.510;2022-09-25T14:59:24;18.60;89.90
39657;DHT22;25337;51.478;7.510;2022-09-25T15:01:52;18.40;90.00
39657;DHT22;25337;51.478;7.510;2022-09-25T15:04:25;18.80;88.10
39657;DHT22;25337;51.478;7.510;2022-09-25T15:07:06;18.10;88.60
39657;DHT22;25337;51.478;7.510;2022-09-25T15:09:40;18.50;85.70
39657;DHT22;25337;51.478;7.510;2022-09-25T15:12:14;20.00;82.40
39657;DHT22;25337;51.478;7.510;2022-09-25T15:14:55;20.50;77.90
39657;DHT22;25337;51.478;7.510;2022-09-25T15:17:21;20.60;75.50
39657;DHT22;25337;51.478;7.510;2022-09-25T15:19:47;21.30;76.60
39657;DHT22;25337;51.478;7.510;2022-09-25T15:22:17;21.50;74.90
39657;DHT22;25337;51.478;7.510;2022-09-25T15:24:46;20.60;77.20
39657;DHT22;25337;51.478;7.510;2022-09-25T15:27:12;20.20;75.60
39657;DHT22;25337;51.478;7.510;2022-09-25T15:29:41;19.80;79.30
39657;DHT22;25337;51.478;7.510;2022-09-25T15:32:14;19.30;79.40
39657;DHT22;25337;51.478;7.510;2022-09-25T15:34:40;18.60;83.20
39657;DHT22;25337;51.478;7.510;2022-09-25T15:37:19;17.80;84.00
39657;DHT22;25337;51.478;7.510;2022-09-25T15:39:50;17.80;86.30
39657;DHT22;25337;51.478;7.510;2022-09-25T15:42:15;17.70;90.80
39657;DHT22;25337;51.478;7.510;2022-09-25T15:44:42;17.50;88.80
39657;DHT22;25337;51.478;7.510;2022-09-25T15:47:51;17.10;90.30
39657;DHT22;25337;51.478;7.510;2022-09-25T15:49:57;16.90;90.20
39657;DHT22;25337;51.478;7.510;2022-09-25T15:52:23;17.10;90.40
39657;DHT22;25337;51.478;7.510;2022-09-25T15:54:51;17.10;90.60
39657;DHT22;25337;51.478;7.510;2022-09-25T15:57:24;16.90;91.50
39657;DHT22;25337;51.478;7.510;2022-09-25T15:59:50;16.60;92.50
39657;DHT22;25337;51.478;7.510;2022-09-25T16:02:36;16.70;93.10
39657;DHT22;25337;51.478;7.510;2022-09-25T16:05:24;16.50;93.40
39657;DHT22;25337;51.478;7.510;2022-09-25T16:07:51;16.40;93.30
39657;DHT22;25337;51.478;7.510;2022-09-25T16:12:43;16.30;94.60
39657;DHT22;25337;51.478;7.510;2022-09-25T16:17:58;16.20;95.20
39657;DHT22;25337;51.478;7.510;2022-09-25T16:20:28;16.20;95.70
39657;DHT22;25337;51.478;7.510;2022-09-25T16:22:54;16.00;96.20
39657;DHT22;25337;51.478;7.510;2022-09-25T16:25:30;16.00;96.90
39657;DHT22;25337;51.478;7.510;2022-09-25T16:28:01;15.90;96.90
39657;DHT22;25337;51.478;7.510;2022-09-25T16:30:28;15.80;97.10
39657;DHT22;25337;51.478;7.510;2022-09-25T16:32:54;15.80;96.90
39657;DHT22;25337;51.478;7.510;2022-09-25T16:35:42;15.80;97.00
39657;DHT22;25337;51.478;7.510;2022-09-25T16:38:28;15.70;97.10
39657;DHT22;25337;51.478;7.510;2022-09-25T16:41:04;15.60;98.00
39657;DHT22;25337;51.478;7.510;2022-09-25T16:43:30;15.60;99.00
39657;DHT22;25337;51.478;7.510;2022-09-25T16:45:59;15.50;99.90
39657;DHT22;25337;51.478;7.510;2022-09-25T16:48:34;15.30;99.90
39657;DHT22;25337;51.478;7.510;2022-09-25T16:51:01;15.10;99.90
39657;DHT22;25337;51.478;7.510;2022-09-25T16:53:27;15.10;99.90
39657;DHT22;25337;51.478;7.510;2022-09-25T16:55:53;15.00;99.90
39657;DHT22;25337;51.478;7.510;2022-09-25T16:58:19;14.80;99.90
39657;DHT22;25337;51.478;7.510;2022-09-25T17:00:45;14.70;99.90
39657;DHT22;25337;51.478;7.510;2022-09-25T17:03:11;14.50;99.90
39657;DHT22;25337;51.478;7.510;2022-09-25T17:05:36;14.40;99.90
39657;DHT22;25337;51.478;7.510;2022-09-25T17:08:24;14.30;99.90
39657;DHT22;25337;51.478;7.510;2022-09-25T17:10:50;14.10;99.90
39657;DHT22;25337;51.478;7.510;2022-09-25T17:13:17;14.10;99.90
39657;DHT22;25337;51.478;7.510;2022-09-25T17:15:43;14.00;99.90
39657;DHT22;25337;51.478;7.510;2022-09-25T17:18:14;14.00;99.90
39657;DHT22;25337;51.478;7.510;2022-09-25T17:20:40;13.80;99.90
39657;DHT22;25337;51.478;7.510;2022-09-25T17:23:09;13.90;99.90
39657;DHT22;25337;51.478;7.510;2022-09-25T17:25:40;13.90;99.90
39657;DHT22;25337;51.478;7.510;2022-09-25T17:28:07;13.80;99.90
39657;DHT22;25337;51.478;7.510;2022-09-25T17:30:33;13.70;99.90
39657;DHT22;25337;51.478;7.510;2022-09-25T17:32:58;13.50;99.90
39657;DHT22;25337;51.478;7.510;2022-09-25T17:37:59;13.50;99.90
39657;DHT22;25337;51.478;7.510;2022-09-25T17:40:26;13.50;99.90
39657;DHT22;25337;51.478;7.510;2022-09-25T17:42:52;13.40;99.90
39657;DHT22;25337;51.478;7.510;2022-09-25T17:45:29;13.20;99.90
39657;DHT22;25337;51.478;7.510;2022-09-25T17:47:56;12.90;99.90
39657;DHT22;25337;51.478;7.510;2022-09-25T17:50:22;12.70;99.90
39657;DHT22;25337;51.478;7.510;2022-09-25T17:52:48;12.60;99.90
39657;DHT22;25337;51.478;7.510;2022-09-25T17:55:17;12.50;99.90
39657;DHT22;25337;51.478;7.510;2022-09-25T17:57:45;12.40;99.90
39657;DHT22;25337;51.478;7.510;2022-09-25T18:00:10;12.20;99.90
39657;DHT22;25337;51.478;7.510;2022-09-25T18:02:36;12.10;99.90
39657;DHT22;25337;51.478;7.510;2022-09-25T18:05:02;11.90;99.90
39657;DHT22;25337;51.478;7.510;2022-09-25T18:07:27;11.70;99.90
